HDAM/JIB METAR and TAF weather

Enter ICAO airport designator
Station Type Date Time Source
HDAM METAR 2019/10/16 14:00 UTC NOAA

HDAM 161400Z 10009KT 9999 FEW023 31/23 Q1010


Station Type Date Time Source
HDAM Decoded METAR 2019/10/16 14:00 UTC NOAA

Djibouti \ Ambouli, Djibouti (HDAM) 11-33N 043-10E
Oct 16, 2019 - 10:00 AM EDT / 2019.10.16 1400 UTC
Wind: from the E (100 degrees) at 10 MPH (9 KT):0
Visibility: greater than 7 mile(s):0
Sky conditions: mostly clear
Temperature: 87 F (31 C)
Heat index: 93.9 F (34.4 C):1
Dew Point: 73 F (23 C)
Relative Humidity: 62%
Pressure (altimeter): 29.83 in. Hg (1010 hPa)
ob: HDAM 161400Z 10009KT 9999 FEW023 31/23 Q1010
cycle: 14

Station Type Date Time Source
HDAM TAF 2019/10/16 12:18 UTC NOAA

TAF TAF HDAM 161100Z 1612/1712 08012KT 9999 SCT023 SCT030
BECMG 1615/1618 VRB05KT SCT020
BECMG 1700/1706 00000KT SCT020

Example: see airport list